logo
Search for airport 
image banner adimage banner adimage banner ad
image banner ad

SQGZ - Las Garzas

Located in , Colombia

ICAO - , IATA -

Data provided by Airmate  

General information

Coordinates: N3°45'4" W75°56'51"
Elevation is 13143 feet MSL.
 
View others Airports in Tolima

Operational data

Special qualification required
Current time UTC:
Current local time:
Weather at : SKCL - Alfonso Bonilla Aragon ( 53 km )
METAR: SKCL 241800Z VRB04KT 9999 FEW020 30/17 Q1014 NOSIG
TAF: TAF SKCL 241630Z 2418/2518 VRB04KT 9999 SCT023 BECMG 2419/2420 33014KT TEMPO 2420/2424 SCT020TCU BECMG 2502/2504 06005KT TEMPO 2511/2514 5000 BR TX33/2420Z TN19/2510Z
View NOTAMs / SUP AIP / TFR affecting this airport [VIEW]
Communications frequencies: [VIEW]

Runways:

Airport contact information

Address: Colombia

Satellite view of SQGZ